createdAt,value
2022-08-22T00:00:36.416Z,19.52
2022-08-22T00:02:43.755Z,23.42
2022-08-22T00:03:11.174Z,19.98
2022-08-22T00:03:12.459Z,17.98
2022-08-22T00:03:30.275Z,23.27
2022-08-22T00:06:15.745Z,20.30
2022-08-22T00:09:04.801Z,19.92
2022-08-22T00:11:51.996Z,25.25
2022-08-22T00:14:33.077Z,17.25
2022-08-22T00:17:18.432Z,18.58
2022-08-22T00:20:09.730Z,23.58
2022-08-22T00:22:42.613Z,20.27
2022-08-22T00:25:29.917Z,18.35
2022-08-22T00:28:05.888Z,22.83
2022-08-22T00:30:45.276Z,19.95
2022-08-22T00:33:41.725Z,23.20
2022-08-22T00:36:43.491Z,18.62
2022-08-22T00:39:25.557Z,19.05
2022-08-22T00:42:31.815Z,25.33
2022-08-22T00:45:21.038Z,16.75
2022-08-22T00:48:07.022Z,22.50
2022-08-22T00:50:46.243Z,25.52
2022-08-22T00:53:22.350Z,17.45
2022-08-22T00:56:24.124Z,21.70
2022-08-22T00:59:22.836Z,18.85
2022-08-22T01:02:16.976Z,22.10
2022-08-22T01:05:00.866Z,16.92
2022-08-22T01:07:55.487Z,24.50
2022-08-22T01:10:37.675Z,16.40
2022-08-22T01:13:26.578Z,20.52
2022-08-22T01:16:10.637Z,17.45
2022-08-22T01:19:18.029Z,25.17
2022-08-22T01:21:56.965Z,15.98
2022-08-22T01:24:26.428Z,21.75
2022-08-22T01:27:12.600Z,18.98
2022-08-22T01:30:01.581Z,23.87
2022-08-22T01:32:48.891Z,16.23
2022-08-22T01:35:44.873Z,19.65
2022-08-22T01:38:38.053Z,21.80
2022-08-22T01:41:27.805Z,14.75
2022-08-22T01:44:18.078Z,22.45
2022-08-22T01:47:14.274Z,18.77
2022-08-22T01:49:47.963Z,21.12
2022-08-22T01:52:31.965Z,20.85
2022-08-22T01:55:07.848Z,19.73
2022-08-22T01:57:53.182Z,17.30
2022-08-22T02:00:34.739Z,16.45
2022-08-22T02:03:24.481Z,16.95
2022-08-22T02:06:08.048Z,14.60
2022-08-22T02:08:42.777Z,14.23
2022-08-22T02:11:35.025Z,20.58
2022-08-22T02:14:17.062Z,19.05
2022-08-22T02:16:48.359Z,16.20
2022-08-22T02:19:15.432Z,18.58
2022-08-22T02:22:23.532Z,18.25
2022-08-22T02:25:00.522Z,16.58
2022-08-22T02:27:43.452Z,14.73
2022-08-22T02:30:15.615Z,18.80
2022-08-22T02:32:42.185Z,17.23
2022-08-22T02:35:20.906Z,15.18
2022-08-22T02:37:47.835Z,16.60
2022-08-22T02:40:41.602Z,17.37
2022-08-22T02:43:20.931Z,10.38
2022-08-22T02:46:18.284Z,14.93
2022-08-22T02:49:05.900Z,13.68
2022-08-22T02:51:56.654Z,13.27
2022-08-22T02:54:31.214Z,16.20
2022-08-22T02:57:03.333Z,15.00
2022-08-22T02:59:38.239Z,13.35
2022-08-22T03:02:27.697Z,15.30
2022-08-22T03:04:59.701Z,16.52
2022-08-22T03:10:36.543Z,10.43
2022-08-22T03:13:18.536Z,21.23
2022-08-22T03:15:58.138Z,13.57
2022-08-22T03:18:32.314Z,19.35
2022-08-22T03:21:09.444Z,12.10
2022-08-22T03:23:39.206Z,9.73
2022-08-22T03:26:07.496Z,13.05
2022-08-22T03:28:59.018Z,12.68
2022-08-22T03:31:29.560Z,11.60
2022-08-22T03:34:17.016Z,12.85
2022-08-22T03:37:02.561Z,16.92
2022-08-22T03:39:46.313Z,13.35
2022-08-22T03:42:15.991Z,15.77
2022-08-22T03:45:10.174Z,13.38
2022-08-22T03:48:10.218Z,14.40
2022-08-22T03:51:13.448Z,24.80
2022-08-22T03:53:46.430Z,16.62
2022-08-22T03:56:41.104Z,11.15
2022-08-22T03:59:29.545Z,11.75
2022-08-22T04:02:33.402Z,15.48
2022-08-22T04:05:17.170Z,15.23
2022-08-22T04:07:55.310Z,15.40
2022-08-22T04:10:58.976Z,15.38
2022-08-22T04:13:50.636Z,8.38
2022-08-22T04:16:36.592Z,14.98
2022-08-22T04:19:18.218Z,14.43
2022-08-22T04:22:09.954Z,15.50
2022-08-22T04:24:52.173Z,12.85
2022-08-22T04:27:41.290Z,11.70
2022-08-22T04:30:31.508Z,11.32
2022-08-22T04:33:06.599Z,9.95
2022-08-22T04:35:42.959Z,11.30
2022-08-22T04:38:24.001Z,14.80
2022-08-22T04:41:00.309Z,10.88
2022-08-22T04:44:07.899Z,12.95
2022-08-22T04:46:55.657Z,12.23
2022-08-22T04:49:29.272Z,11.70
2022-08-22T04:52:29.619Z,12.23
2022-08-22T04:55:22.063Z,12.18
2022-08-22T05:01:02.523Z,9.85
2022-08-22T05:03:31.430Z,12.88
2022-08-22T05:06:01.088Z,11.50
2022-08-22T05:08:32.378Z,11.77
2022-08-22T05:13:37.329Z,14.52
2022-08-22T05:16:10.700Z,11.20
2022-08-22T05:18:45.505Z,10.50
2022-08-22T05:21:15.463Z,11.15
2022-08-22T05:23:49.672Z,12.23
2022-08-22T05:26:18.709Z,11.10
2022-08-22T05:28:54.948Z,13.93
2022-08-22T05:31:27.529Z,11.35
2022-08-22T05:33:59.874Z,9.52
2022-08-22T05:36:30.753Z,14.70
2022-08-22T05:39:12.238Z,11.05
2022-08-22T05:41:40.799Z,12.52
2022-08-22T05:44:20.756Z,17.95
2022-08-22T05:47:29.010Z,11.05
2022-08-22T05:50:07.696Z,10.77
2022-08-22T05:52:56.487Z,10.43
2022-08-22T05:55:32.118Z,11.15
2022-08-22T05:58:34.382Z,9.85
2022-08-22T06:03:44.886Z,12.48
2022-08-22T06:06:18.365Z,18.83
2022-08-22T06:08:58.492Z,20.08
2022-08-22T06:11:34.450Z,12.13
2022-08-22T06:14:17.017Z,20.23
2022-08-22T06:16:57.065Z,11.00
2022-08-22T06:19:24.440Z,10.77
2022-08-22T06:21:54.412Z,12.37
2022-08-22T06:24:26.953Z,13.38
2022-08-22T06:27:02.591Z,15.73
2022-08-22T06:29:35.311Z,13.90
2022-08-22T06:32:10.450Z,15.82
2022-08-22T06:34:41.386Z,16.05
2022-08-22T06:37:17.064Z,13.43
2022-08-22T06:39:49.125Z,13.62
2022-08-22T06:42:23.119Z,10.00
2022-08-22T06:44:59.994Z,13.85
2022-08-22T06:47:38.865Z,12.80
2022-08-22T06:50:13.919Z,14.10
2022-08-22T06:52:58.331Z,10.10
2022-08-22T06:55:28.228Z,10.68
2022-08-22T06:58:15.697Z,11.85
2022-08-22T07:00:47.562Z,10.52
2022-08-22T07:03:33.503Z,6.97
2022-08-22T07:06:01.083Z,16.67
2022-08-22T07:08:30.894Z,8.20
2022-08-22T07:11:14.251Z,12.85
2022-08-22T07:13:49.643Z,9.40
2022-08-22T07:16:16.641Z,6.25
2022-08-22T07:18:49.371Z,11.60
2022-08-22T07:21:29.547Z,11.75
2022-08-22T07:24:01.336Z,8.30
2022-08-22T07:26:46.012Z,10.60
2022-08-22T07:29:28.093Z,12.65
2022-08-22T07:32:03.215Z,10.13
2022-08-22T07:34:39.425Z,8.10
2022-08-22T07:37:17.870Z,9.20
2022-08-22T07:40:11.490Z,13.82
2022-08-22T07:43:02.764Z,7.95
2022-08-22T07:45:52.234Z,11.48
2022-08-22T07:48:26.499Z,11.93
2022-08-22T07:51:08.643Z,15.95
2022-08-22T07:56:35.906Z,14.32
2022-08-22T07:59:13.175Z,10.05
2022-08-22T08:01:46.809Z,12.93
2022-08-22T08:04:19.484Z,10.90
2022-08-22T08:06:52.858Z,7.78
2022-08-22T08:09:20.673Z,14.82
2022-08-22T08:11:51.608Z,13.88
2022-08-22T08:14:21.908Z,9.60
2022-08-22T08:17:02.108Z,9.23
2022-08-22T08:19:34.768Z,10.88
2022-08-22T08:22:02.599Z,8.52
2022-08-22T08:24:40.031Z,11.90
2022-08-22T08:27:34.046Z,9.60
2022-08-22T08:30:15.192Z,14.73
2022-08-22T08:33:24.454Z,13.57
2022-08-22T08:36:02.824Z,15.95
2022-08-22T08:38:57.957Z,12.88
2022-08-22T08:41:58.291Z,13.30
2022-08-22T08:44:37.386Z,11.18
2022-08-22T08:47:15.462Z,7.15
2022-08-22T08:50:12.326Z,8.32
2022-08-22T08:53:07.538Z,8.20
2022-08-22T08:56:07.172Z,9.05
2022-08-22T08:58:59.897Z,7.70
2022-08-22T09:01:29.930Z,9.63
2022-08-22T09:04:21.955Z,8.25
2022-08-22T09:07:08.426Z,9.48
2022-08-22T09:09:52.296Z,13.43
2022-08-22T09:12:52.208Z,10.75
2022-08-22T09:15:37.480Z,12.50
2022-08-22T09:18:25.653Z,10.23
2022-08-22T09:21:41.221Z,9.18
2022-08-22T09:24:29.987Z,11.30
2022-08-22T09:27:08.688Z,10.40
2022-08-22T09:29:54.714Z,11.12
2022-08-22T09:32:30.395Z,12.63
2022-08-22T09:35:22.407Z,12.80
2022-08-22T09:38:05.152Z,11.43
2022-08-22T09:41:00.293Z,14.75
2022-08-22T09:43:38.053Z,9.30
2022-08-22T09:46:29.490Z,13.30
2022-08-22T09:49:06.672Z,15.30
2022-08-22T09:51:49.167Z,15.68
2022-08-22T09:54:31.563Z,12.60
2022-08-22T09:57:14.428Z,17.77
2022-08-22T10:00:05.791Z,11.45
2022-08-22T10:03:03.745Z,14.30
2022-08-22T10:06:00.462Z,13.57
2022-08-22T10:08:50.767Z,16.62
2022-08-22T10:11:28.855Z,18.05
2022-08-22T10:14:04.506Z,21.50
2022-08-22T10:16:43.228Z,13.90
2022-08-22T10:19:32.708Z,15.73
2022-08-22T10:22:12.067Z,22.40
2022-08-22T10:24:48.286Z,19.67
2022-08-22T10:27:32.604Z,18.10
2022-08-22T10:30:10.996Z,13.80
2022-08-22T10:33:12.118Z,17.67
2022-08-22T10:35:46.990Z,15.73
2022-08-22T10:38:46.350Z,15.65
2022-08-22T10:41:33.909Z,17.25
2022-08-22T10:44:12.707Z,15.18
2022-08-22T10:47:00.946Z,20.98
2022-08-22T10:49:39.267Z,20.48
2022-08-22T10:52:19.695Z,16.37
2022-08-22T10:54:51.343Z,18.60
2022-08-22T10:57:50.699Z,22.98
2022-08-22T11:00:46.231Z,18.17
2022-08-22T11:03:39.831Z,22.95
2022-08-22T11:06:13.907Z,29.92
2022-08-22T11:08:47.018Z,26.83
2022-08-22T11:11:24.705Z,21.90
2022-08-22T11:14:36.232Z,29.45
2022-08-22T11:17:30.846Z,32.88
2022-08-22T11:20:31.953Z,27.05
2022-08-22T11:23:21.781Z,24.73
2022-08-22T11:25:58.035Z,23.53
2022-08-22T11:28:42.026Z,22.08
2022-08-22T11:31:31.721Z,30.73
2022-08-22T11:34:31.471Z,28.95
2022-08-22T11:37:12.167Z,33.05
2022-08-22T11:39:45.568Z,28.57
2022-08-22T11:42:29.656Z,28.62
2022-08-22T11:45:00.210Z,28.80
2022-08-22T11:47:40.228Z,36.85
2022-08-22T11:50:27.781Z,30.37
2022-08-22T11:53:07.818Z,36.95
2022-08-22T11:55:47.975Z,28.58
2022-08-22T11:58:15.330Z,29.10
2022-08-22T12:00:55.430Z,31.12
2022-08-22T12:03:43.584Z,33.23
2022-08-22T12:06:46.852Z,36.88
2022-08-22T12:09:27.811Z,41.72
2022-08-22T12:12:18.396Z,34.40
2022-08-22T12:15:04.129Z,40.08
2022-08-22T12:18:01.225Z,37.28
2022-08-22T12:20:53.663Z,38.45
2022-08-22T12:26:19.473Z,31.25
2022-08-22T12:29:28.569Z,47.20
2022-08-22T12:32:18.866Z,42.95
2022-08-22T12:35:14.226Z,42.72
2022-08-22T12:37:54.383Z,37.65
2022-08-22T12:40:28.399Z,35.25
2022-08-22T12:43:28.748Z,39.92
2022-08-22T12:46:12.977Z,42.28
2022-08-22T12:48:58.288Z,33.30
2022-08-22T12:51:50.570Z,50.17
2022-08-22T12:54:44.033Z,44.20
2022-08-22T12:57:36.044Z,37.22
2022-08-22T13:00:30.360Z,45.12
2022-08-22T13:03:02.058Z,34.15
2022-08-22T13:05:34.233Z,40.97
2022-08-22T13:08:13.893Z,36.92
2022-08-22T13:10:51.236Z,28.08
2022-08-22T13:13:43.519Z,36.95
2022-08-22T13:16:25.047Z,37.40
2022-08-22T13:19:01.269Z,38.22
2022-08-22T13:21:43.371Z,29.87
2022-08-22T13:24:38.656Z,33.05
2022-08-22T13:27:14.950Z,39.03
2022-08-22T13:29:52.051Z,35.85
2022-08-22T13:32:31.810Z,34.58
2022-08-22T13:35:00.159Z,37.35
2022-08-22T13:37:50.165Z,35.38
2022-08-22T13:40:47.751Z,36.03
2022-08-22T13:43:22.139Z,33.72
2022-08-22T13:45:54.592Z,35.33
2022-08-22T13:48:28.326Z,37.88
2022-08-22T13:51:26.500Z,32.08
2022-08-22T13:54:12.434Z,31.15
2022-08-22T13:57:16.431Z,31.27
2022-08-22T13:59:52.422Z,26.02
2022-08-22T14:02:52.180Z,35.17
2022-08-22T14:05:44.143Z,33.15
2022-08-22T14:08:20.295Z,23.45
2022-08-22T14:11:08.715Z,33.20
2022-08-22T14:13:42.689Z,28.65
2022-08-22T14:16:12.871Z,26.62
2022-08-22T14:18:50.123Z,25.80
2022-08-22T14:21:29.539Z,28.83
2022-08-22T14:24:31.010Z,24.98
2022-08-22T14:27:12.143Z,30.25
2022-08-22T14:29:50.210Z,29.65
2022-08-22T14:32:25.831Z,28.98
2022-08-22T14:35:13.558Z,24.50
2022-08-22T14:37:53.060Z,26.15
2022-08-22T14:40:29.020Z,23.33
2022-08-22T14:43:06.282Z,22.48
2022-08-22T14:45:40.643Z,17.37
2022-08-22T14:48:31.355Z,26.33
2022-08-22T14:51:10.193Z,25.80
2022-08-22T14:53:40.451Z,29.52
2022-08-22T14:56:15.593Z,28.27
2022-08-22T14:59:06.764Z,23.52
2022-08-22T15:01:54.472Z,25.17
2022-08-22T15:04:40.545Z,22.95
2022-08-22T15:07:10.619Z,26.42
2022-08-22T15:09:52.176Z,30.50
2022-08-22T15:12:37.841Z,23.73
2022-08-22T15:15:12.776Z,25.30
2022-08-22T15:17:50.762Z,31.27
2022-08-22T15:20:36.392Z,25.85
2022-08-22T15:23:21.887Z,30.62
2022-08-22T15:26:03.836Z,22.00
2022-08-22T15:28:52.285Z,25.70
2022-08-22T15:31:22.130Z,25.48
2022-08-22T15:33:50.589Z,20.37
2022-08-22T15:36:25.073Z,22.30
2022-08-22T15:39:16.682Z,28.50
2022-08-22T15:41:47.914Z,24.42
2022-08-22T15:44:33.129Z,26.40
2022-08-22T15:47:10.705Z,25.55
2022-08-22T15:50:05.585Z,19.62
2022-08-22T15:52:59.836Z,24.05
2022-08-22T15:55:34.535Z,23.00
2022-08-22T15:58:06.728Z,20.15
2022-08-22T16:00:43.700Z,26.85
2022-08-22T16:03:26.456Z,20.95
2022-08-22T16:06:07.854Z,22.52
2022-08-22T16:08:51.659Z,25.10
2022-08-22T16:11:33.493Z,28.33
2022-08-22T16:14:23.425Z,20.37
2022-08-22T16:16:51.189Z,22.60
2022-08-22T16:19:22.402Z,26.40
2022-08-22T16:21:51.740Z,30.95
2022-08-22T16:24:18.710Z,22.40
2022-08-22T16:26:46.247Z,17.23
2022-08-22T16:29:17.961Z,21.95
2022-08-22T16:31:47.868Z,17.45
2022-08-22T16:34:20.543Z,22.08
2022-08-22T16:37:02.800Z,24.02
2022-08-22T16:39:40.811Z,25.40
2022-08-22T16:42:21.866Z,23.60
2022-08-22T16:44:51.858Z,23.97
2022-08-22T16:47:23.382Z,26.40
2022-08-22T16:49:49.979Z,25.45
2022-08-22T16:52:26.033Z,20.98
2022-08-22T16:54:55.788Z,21.58
2022-08-22T16:57:29.515Z,25.00
2022-08-22T17:00:38.566Z,20.85
2022-08-22T17:03:11.161Z,17.92
2022-08-22T17:05:55.191Z,21.40
2022-08-22T17:08:43.742Z,22.52
2022-08-22T17:11:47.785Z,20.60
2022-08-22T17:14:20.272Z,21.60
2022-08-22T17:17:02.685Z,17.12
2022-08-22T17:19:47.869Z,23.17
2022-08-22T17:22:32.945Z,24.25
2022-08-22T17:25:18.678Z,17.98
2022-08-22T17:27:51.822Z,20.15
2022-08-22T17:30:41.315Z,27.60
2022-08-22T17:33:43.280Z,22.60
2022-08-22T17:39:16.018Z,26.58
2022-08-22T17:41:50.370Z,22.08
2022-08-22T17:44:37.694Z,17.77
2022-08-22T17:47:27.640Z,24.70
2022-08-22T17:50:03.713Z,22.25
2022-08-22T17:52:47.031Z,20.17
2022-08-22T17:55:32.915Z,19.25
2022-08-22T17:58:11.841Z,23.17
2022-08-22T18:00:51.701Z,19.40
2022-08-22T18:03:27.549Z,16.87
2022-08-22T18:06:10.255Z,22.87
2022-08-22T18:11:51.645Z,24.25
2022-08-22T18:14:29.930Z,27.37
2022-08-22T18:16:59.377Z,22.60
2022-08-22T18:19:45.235Z,23.02
2022-08-22T18:22:43.454Z,23.92
2022-08-22T18:25:27.586Z,21.90
2022-08-22T18:28:09.833Z,21.87
2022-08-22T18:30:50.696Z,30.20
2022-08-22T18:33:31.000Z,18.80
2022-08-22T18:36:11.472Z,23.50
2022-08-22T18:38:52.397Z,18.85
2022-08-22T18:41:19.254Z,25.73
2022-08-22T18:43:50.706Z,25.95
2022-08-22T18:46:29.838Z,21.08
2022-08-22T18:49:14.562Z,24.55
2022-08-22T18:51:42.126Z,29.50
2022-08-22T18:54:10.699Z,24.12
2022-08-22T18:57:05.626Z,25.20
2022-08-22T18:59:41.538Z,26.30
2022-08-22T19:02:33.613Z,20.23
2022-08-22T19:05:31.734Z,32.83
2022-08-22T19:08:22.712Z,21.98
2022-08-22T19:11:35.069Z,21.90
2022-08-22T19:14:42.133Z,18.95
2022-08-22T19:17:27.562Z,32.70
2022-08-22T19:20:40.717Z,23.33
2022-08-22T19:23:32.806Z,23.08
2022-08-22T19:26:30.630Z,29.27
2022-08-22T19:29:01.690Z,23.35
2022-08-22T19:31:44.121Z,23.77
2022-08-22T19:34:29.401Z,23.80
2022-08-22T19:37:30.482Z,27.02
2022-08-22T19:40:11.300Z,30.02
2022-08-22T19:42:41.428Z,25.92
2022-08-22T19:45:25.660Z,29.20
2022-08-22T19:47:59.702Z,32.10
2022-08-22T19:50:33.029Z,27.95
2022-08-22T19:53:18.646Z,21.67
2022-08-22T19:56:12.786Z,29.02
2022-08-22T19:59:16.559Z,29.37
2022-08-22T20:02:04.861Z,30.25
2022-08-22T20:04:55.013Z,22.95
2022-08-22T20:08:09.555Z,29.02
2022-08-22T20:10:51.394Z,25.40
2022-08-22T20:13:18.816Z,25.62
2022-08-22T20:16:08.449Z,24.95
2022-08-22T20:19:07.913Z,26.75
2022-08-22T20:22:02.171Z,22.65
2022-08-22T20:24:40.264Z,29.33
2022-08-22T20:27:27.588Z,27.62
2022-08-22T20:30:07.896Z,25.77
2022-08-22T20:32:43.163Z,20.50
2022-08-22T20:35:17.864Z,20.77
2022-08-22T20:38:06.692Z,23.70
2022-08-22T20:41:11.368Z,29.35
2022-08-22T20:43:47.325Z,18.37
2022-08-22T20:46:24.003Z,26.05
2022-08-22T20:48:54.439Z,24.08
2022-08-22T20:51:26.148Z,24.80
2022-08-22T20:54:15.391Z,25.65
2022-08-22T20:56:55.917Z,28.17
2022-08-22T20:59:25.703Z,19.37
2022-08-22T21:01:58.795Z,19.87
2022-08-22T21:04:30.889Z,24.58
2022-08-22T21:07:01.723Z,26.05
2022-08-22T21:09:47.980Z,32.15
2022-08-22T21:12:15.332Z,17.75
2022-08-22T21:14:46.284Z,23.33
2022-08-22T21:17:24.459Z,25.10
2022-08-22T21:19:52.524Z,21.92
2022-08-22T21:22:28.520Z,20.33
2022-08-22T21:24:58.145Z,18.35
2022-08-22T21:27:30.252Z,28.15
2022-08-22T21:30:00.098Z,20.65
2022-08-22T21:32:37.553Z,19.08
2022-08-22T21:35:18.076Z,22.40
2022-08-22T21:37:46.436Z,13.60
2022-08-22T21:40:18.066Z,18.95
2022-08-22T21:43:10.900Z,28.95
2022-08-22T21:45:37.869Z,19.05
2022-08-22T21:48:43.951Z,23.12
2022-08-22T21:51:41.034Z,19.92
2022-08-22T21:54:32.625Z,20.85
2022-08-22T21:59:52.188Z,19.35
2022-08-22T22:02:35.305Z,19.85
2022-08-22T22:05:14.050Z,16.40
2022-08-22T22:07:43.572Z,18.62
2022-08-22T22:10:14.048Z,22.30
2022-08-22T22:12:43.045Z,24.23
2022-08-22T22:15:14.153Z,15.25
2022-08-22T22:17:40.963Z,20.90
2022-08-22T22:20:08.676Z,15.48
2022-08-22T22:22:37.054Z,23.42
2022-08-22T22:25:39.597Z,22.40
2022-08-22T22:28:08.775Z,43.92
2022-08-22T22:30:36.120Z,26.83
2022-08-22T22:33:02.959Z,29.63
2022-08-22T22:35:30.403Z,27.67
2022-08-22T22:37:57.260Z,17.95
2022-08-22T22:40:24.423Z,13.25
2022-08-22T22:42:51.478Z,13.75
2022-08-22T22:45:18.207Z,13.88
2022-08-22T22:47:44.910Z,14.00
2022-08-22T22:50:11.819Z,17.65
2022-08-22T22:52:40.785Z,13.30
2022-08-22T22:55:09.036Z,18.05
2022-08-22T22:57:41.358Z,20.02
2022-08-22T23:00:11.608Z,12.88
2022-08-22T23:02:39.740Z,14.60
2022-08-22T23:05:07.830Z,13.18
2022-08-22T23:07:35.369Z,16.65
2022-08-22T23:10:05.186Z,16.73
2022-08-22T23:12:34.682Z,16.17
2022-08-22T23:15:01.541Z,16.67
2022-08-22T23:17:28.582Z,25.52
2022-08-22T23:19:55.242Z,15.55
2022-08-22T23:22:22.135Z,12.75
2022-08-22T23:24:50.097Z,16.23
2022-08-22T23:27:16.951Z,14.18
2022-08-22T23:29:45.284Z,17.80
2022-08-22T23:32:12.904Z,17.90
2022-08-22T23:34:44.054Z,12.07
2022-08-22T23:37:10.799Z,17.25
2022-08-22T23:39:40.486Z,11.10
2022-08-22T23:42:08.620Z,16.20
2022-08-22T23:44:37.569Z,15.68
2022-08-22T23:47:05.995Z,17.30
2022-08-22T23:49:33.900Z,14.90
2022-08-22T23:52:01.059Z,12.15
2022-08-22T23:54:28.075Z,15.60
2022-08-22T23:56:57.795Z,11.95
2022-08-22T23:59:30.704Z,13.73
